createdAt,value
2018-01-20T00:00:58.396Z,75.07
2018-01-20T00:01:58.396Z,74.98
2018-01-20T00:02:58.396Z,75.17
2018-01-20T00:03:58.398Z,75.17
2018-01-20T00:04:58.400Z,75.17
2018-01-20T00:05:58.400Z,75.45
2018-01-20T00:06:58.402Z,75.73
2018-01-20T00:07:58.403Z,76.40
2018-01-20T00:08:58.403Z,77.15
2018-01-20T00:09:58.409Z,77.06
2018-01-20T00:10:58.407Z,77.25
2018-01-20T00:11:58.409Z,77.25
2018-01-20T00:12:58.409Z,77.25
2018-01-20T00:13:58.411Z,77.25
2018-01-20T00:14:58.419Z,77.53
2018-01-20T00:15:58.416Z,77.72
2018-01-20T00:16:58.415Z,77.15
2018-01-20T00:17:58.417Z,77.53
2018-01-20T00:18:58.419Z,77.72
2018-01-20T00:19:58.421Z,77.62
2018-01-20T00:20:58.420Z,78.38
2018-01-20T00:21:58.423Z,78.75
2018-01-20T00:22:58.425Z,79.50
2018-01-20T00:23:58.425Z,80.17
2018-01-20T00:24:58.426Z,80.45
2018-01-20T00:25:58.428Z,80.64
2018-01-20T00:26:58.436Z,80.73
2018-01-20T00:27:58.432Z,80.83
2018-01-20T00:28:58.433Z,80.83
2018-01-20T00:29:58.434Z,80.64
2018-01-20T00:30:58.436Z,80.92
2018-01-20T00:31:58.447Z,81.21
2018-01-20T00:32:58.439Z,83.09
2018-01-20T00:33:58.440Z,84.22
2018-01-20T00:34:58.443Z,84.03
2018-01-20T00:35:58.443Z,83.47
2018-01-20T00:36:58.447Z,83.09
2018-01-20T00:37:58.446Z,83.47
2018-01-20T00:38:58.447Z,83.47
2018-01-20T00:39:58.450Z,83.28
2018-01-20T00:40:58.453Z,84.03
2018-01-20T00:41:58.452Z,85.26
2018-01-20T00:42:58.454Z,86.21
2018-01-20T00:43:58.463Z,86.58
2018-01-20T00:44:58.456Z,87.05
2018-01-20T00:45:58.458Z,87.24
2018-01-20T00:46:58.460Z,88.28
2018-01-20T00:47:58.461Z,88.37
2018-01-20T00:48:58.469Z,88.94
2018-01-20T00:49:58.464Z,89.79
2018-01-20T00:50:58.466Z,90.45
2018-01-20T00:51:58.468Z,90.17
2018-01-20T00:52:58.469Z,89.32
2018-01-20T00:53:58.469Z,89.32
2018-01-20T00:54:58.472Z,89.13
2018-01-20T00:55:58.472Z,89.60
2018-01-20T00:56:58.478Z,90.64
2018-01-20T00:57:58.498Z,90.83
2018-01-20T00:58:58.476Z,90.92
2018-01-20T00:59:58.480Z,91.02
2018-01-20T01:00:58.478Z,90.45
2018-01-20T01:01:58.479Z,87.90
2018-01-20T01:02:58.482Z,85.64
2018-01-20T01:03:58.485Z,85.64
2018-01-20T01:04:58.483Z,85.83
2018-01-20T01:05:58.486Z,85.64
2018-01-20T01:06:58.487Z,84.65
2018-01-20T01:07:58.495Z,84.47
2018-01-20T01:08:58.488Z,84.56
2018-01-20T01:09:58.490Z,84.18
2018-01-20T01:10:58.491Z,84.28
2018-01-20T01:11:58.491Z,84.28
2018-01-20T01:12:58.496Z,84.28
2018-01-20T01:13:58.494Z,83.75
2018-01-20T01:14:58.495Z,82.39
2018-01-20T01:15:58.496Z,81.63
2018-01-20T01:16:58.498Z,81.92
2018-01-20T01:17:58.498Z,81.58
2018-01-20T01:18:58.499Z,81.16
2018-01-20T01:19:58.500Z,79.66
2018-01-20T01:20:58.503Z,77.77
2018-01-20T01:21:58.502Z,78.34
2018-01-20T01:22:58.502Z,77.81
2018-01-20T01:23:58.504Z,78.43
2018-01-20T01:24:58.503Z,78.75
2018-01-20T01:25:58.506Z,79.60
2018-01-20T01:26:58.507Z,78.05
2018-01-20T01:27:58.508Z,77.96
2018-01-20T01:28:58.507Z,77.86
2018-01-20T01:29:58.510Z,77.49
2018-01-20T01:30:58.510Z,76.92
2018-01-20T01:31:58.514Z,76.54
2018-01-20T01:32:58.511Z,76.64
2018-01-20T01:33:58.513Z,76.82
2018-01-20T01:34:58.513Z,76.92
2018-01-20T01:35:58.515Z,76.82
2018-01-20T01:36:58.515Z,76.07
2018-01-20T01:37:58.519Z,76.17
2018-01-20T01:38:58.516Z,76.07
2018-01-20T01:39:58.517Z,76.35
2018-01-20T01:40:58.521Z,75.60
2018-01-20T01:41:58.519Z,75.23
2018-01-20T01:42:58.519Z,75.70
2018-01-20T01:43:58.520Z,75.04
2018-01-20T01:44:58.521Z,74.85
2018-01-20T01:45:58.521Z,74.76
2018-01-20T01:46:58.521Z,75.51
2018-01-20T01:47:58.523Z,75.60
2018-01-20T01:48:58.524Z,76.17
2018-01-20T01:49:58.523Z,76.45
2018-01-20T01:50:58.524Z,75.98
2018-01-20T01:51:58.526Z,76.26
2018-01-20T01:52:58.525Z,76.54
2018-01-20T01:53:58.526Z,75.98
2018-01-20T01:54:58.526Z,75.79
2018-01-20T01:55:58.529Z,75.23
2018-01-20T01:56:58.529Z,74.57
2018-01-20T01:57:58.527Z,74.85
2018-01-20T01:58:58.528Z,74.28
2018-01-20T01:59:58.530Z,74.66
2018-01-20T02:00:58.533Z,74.57
2018-01-20T02:01:58.532Z,74.57
2018-01-20T02:02:58.531Z,74.76
2018-01-20T02:03:58.532Z,74.57
2018-01-20T02:04:58.534Z,74.76
2018-01-20T02:05:58.533Z,74.57
2018-01-20T02:06:58.533Z,74.76
2018-01-20T02:07:58.535Z,74.57
2018-01-20T02:08:58.534Z,72.58
2018-01-20T02:09:58.535Z,71.55
2018-01-20T02:10:58.539Z,71.45
2018-01-20T02:11:58.537Z,71.55
2018-01-20T02:12:58.537Z,71.83
2018-01-20T02:13:58.539Z,71.83
2018-01-20T02:14:58.538Z,71.83
2018-01-20T02:15:58.539Z,71.83
2018-01-20T02:16:58.539Z,72.11
2018-01-20T02:17:58.542Z,72.21
2018-01-20T02:18:58.544Z,71.73
2018-01-20T02:19:58.542Z,71.55
2018-01-20T02:20:58.541Z,72.40
2018-01-20T02:21:58.542Z,72.40
2018-01-20T02:22:58.543Z,71.26
2018-01-20T02:23:58.548Z,70.42
2018-01-20T02:24:58.546Z,70.70
2018-01-20T02:25:58.544Z,70.79
2018-01-20T02:26:58.545Z,70.79
2018-01-20T02:27:58.545Z,70.04
2018-01-20T02:28:58.545Z,70.23
2018-01-20T02:29:58.547Z,70.14
2018-01-20T02:30:58.548Z,70.14
2018-01-20T02:31:58.549Z,69.85
2018-01-20T02:32:58.549Z,67.97
2018-01-20T02:33:58.550Z,67.40
2018-01-20T02:34:58.550Z,66.64
2018-01-20T02:35:58.553Z,66.64
2018-01-20T02:36:58.553Z,67.49
2018-01-20T02:37:58.553Z,67.59
2018-01-20T02:38:58.554Z,68.34
2018-01-20T02:39:58.554Z,69.00
2018-01-20T02:40:58.554Z,69.95
2018-01-20T02:41:58.558Z,70.14
2018-01-20T02:42:58.555Z,70.61
2018-01-20T02:43:58.557Z,71.92
2018-01-20T02:44:58.556Z,72.87
2018-01-20T02:45:58.558Z,72.58
2018-01-20T02:46:58.558Z,72.96
2018-01-20T02:47:58.559Z,73.91
2018-01-20T02:48:58.559Z,74.95
2018-01-20T02:49:58.559Z,75.32
2018-01-20T02:50:58.562Z,75.60
2018-01-20T02:51:58.562Z,75.89
2018-01-20T02:52:58.595Z,75.79
2018-01-20T02:53:58.561Z,75.79
2018-01-20T02:54:58.563Z,74.76
2018-01-20T02:55:58.564Z,74.10
2018-01-20T02:56:58.563Z,70.98
2018-01-20T02:57:58.564Z,69.19
2018-01-20T02:58:58.568Z,68.72
2018-01-20T02:59:58.565Z,68.91
2018-01-20T03:00:58.565Z,69.85
2018-01-20T03:01:58.568Z,70.70
2018-01-20T03:02:58.567Z,71.36
2018-01-20T03:03:58.569Z,71.64
2018-01-20T03:04:58.569Z,71.83
2018-01-20T03:05:58.569Z,72.30
2018-01-20T03:06:58.571Z,72.58
2018-01-20T03:07:58.571Z,72.49
2018-01-20T03:08:58.574Z,73.25
2018-01-20T03:09:58.572Z,73.72
2018-01-20T03:10:58.574Z,73.72
2018-01-20T03:11:58.575Z,74.28
2018-01-20T03:12:58.574Z,74.47
2018-01-20T03:13:58.578Z,74.66
2018-01-20T03:14:58.577Z,74.85
2018-01-20T03:15:58.579Z,74.66
2018-01-20T03:16:58.578Z,74.47
2018-01-20T03:17:58.580Z,74.19
2018-01-20T03:18:58.580Z,73.43
2018-01-20T03:19:58.582Z,73.43
2018-01-20T03:20:58.581Z,73.25
2018-01-20T03:21:58.582Z,72.30
2018-01-20T03:22:58.582Z,72.68
2018-01-20T03:23:58.584Z,73.15
2018-01-20T03:24:58.584Z,72.21
2018-01-20T03:25:58.587Z,72.02
2018-01-20T03:26:58.588Z,72.40
2018-01-20T03:27:58.586Z,71.83
2018-01-20T03:28:58.586Z,72.30
2018-01-20T03:29:58.586Z,72.40
2018-01-20T03:30:58.591Z,72.68
2018-01-20T03:31:58.588Z,72.58
2018-01-20T03:32:58.588Z,73.53
2018-01-20T03:33:58.589Z,73.81
2018-01-20T03:34:58.589Z,74.00
2018-01-20T03:35:58.590Z,73.43
2018-01-20T03:36:58.590Z,72.58
2018-01-20T03:37:58.589Z,73.43
2018-01-20T03:38:58.600Z,73.25
2018-01-20T03:39:58.591Z,73.34
2018-01-20T03:40:58.590Z,73.62
2018-01-20T03:41:58.591Z,73.91
2018-01-20T03:42:58.593Z,74.00
2018-01-20T03:43:58.592Z,73.91
2018-01-20T03:44:58.593Z,73.72
2018-01-20T03:45:58.596Z,73.72
2018-01-20T03:46:58.593Z,72.87
2018-01-20T03:47:58.595Z,71.26
2018-01-20T03:48:58.593Z,70.32
2018-01-20T03:49:58.595Z,69.76
2018-01-20T03:50:58.595Z,69.38
2018-01-20T03:51:58.596Z,69.76
2018-01-20T03:52:58.595Z,70.04
2018-01-20T03:53:58.596Z,70.32
2018-01-20T03:54:58.599Z,69.38
2018-01-20T03:55:58.595Z,68.63
2018-01-20T03:56:58.597Z,68.34
2018-01-20T03:57:58.598Z,68.53
2018-01-20T03:58:58.598Z,69.29
2018-01-20T03:59:58.598Z,69.57
2018-01-20T04:00:58.597Z,69.67
2018-01-20T04:01:58.598Z,69.67
2018-01-20T04:02:58.596Z,69.48
2018-01-20T04:03:58.599Z,69.67
2018-01-20T04:04:58.598Z,69.95
2018-01-20T04:05:58.600Z,70.23
2018-01-20T04:06:58.599Z,70.23
2018-01-20T04:07:58.600Z,69.48
2018-01-20T04:08:58.601Z,69.38
2018-01-20T04:09:58.599Z,69.57
2018-01-20T04:10:58.600Z,70.70
2018-01-20T04:11:58.602Z,71.26
2018-01-20T04:12:58.602Z,72.49
2018-01-20T04:13:58.604Z,72.77
2018-01-20T04:14:58.603Z,72.58
2018-01-20T04:15:58.603Z,72.96
2018-01-20T04:16:58.603Z,73.53
2018-01-20T04:17:58.604Z,73.81
2018-01-20T04:18:58.609Z,74.10
2018-01-20T04:19:58.607Z,74.00
2018-01-20T04:20:58.604Z,73.81
2018-01-20T04:21:58.606Z,76.73
2018-01-20T04:22:58.607Z,78.62
2018-01-20T04:23:58.607Z,77.58
2018-01-20T04:24:58.606Z,76.17
2018-01-20T04:25:58.607Z,74.95
2018-01-20T04:26:58.607Z,74.47
2018-01-20T04:27:58.608Z,74.00
2018-01-20T04:28:58.607Z,73.43
2018-01-20T04:29:58.609Z,69.95
2018-01-20T04:30:58.610Z,68.34
2018-01-20T04:31:58.610Z,66.64
2018-01-20T04:32:58.612Z,66.08
2018-01-20T04:33:58.613Z,67.21
2018-01-20T04:34:58.612Z,66.93
2018-01-20T04:35:58.613Z,66.55
2018-01-20T04:36:58.611Z,66.46
2018-01-20T04:37:58.613Z,65.89
2018-01-20T04:38:58.613Z,64.86
2018-01-20T04:39:58.615Z,64.39
2018-01-20T04:40:58.615Z,65.23
2018-01-20T04:41:58.616Z,66.36
2018-01-20T04:42:58.616Z,65.89
2018-01-20T04:43:58.618Z,65.42
2018-01-20T04:44:58.616Z,63.85
2018-01-20T04:45:58.621Z,62.72
2018-01-20T04:46:58.618Z,62.53
2018-01-20T04:47:58.622Z,61.87
2018-01-20T04:48:58.619Z,62.72
2018-01-20T04:49:58.619Z,64.10
2018-01-20T04:50:58.620Z,64.23
2018-01-20T04:51:58.626Z,65.26
2018-01-20T04:52:58.620Z,65.05
2018-01-20T04:53:58.621Z,64.95
2018-01-20T04:54:58.624Z,64.39
2018-01-20T04:55:58.623Z,62.59
2018-01-20T04:56:58.621Z,61.58
2018-01-20T04:57:58.622Z,60.83
2018-01-20T04:58:58.626Z,61.49
2018-01-20T04:59:58.623Z,63.06
2018-01-20T05:00:58.623Z,63.06
2018-01-20T05:01:58.625Z,63.91
2018-01-20T05:02:58.627Z,63.82
2018-01-20T05:03:58.626Z,64.67
2018-01-20T05:04:58.627Z,65.14
2018-01-20T05:05:58.627Z,64.10
2018-01-20T05:06:58.628Z,64.42
2018-01-20T05:07:58.628Z,64.76
2018-01-20T05:08:58.629Z,65.26
2018-01-20T05:09:58.629Z,65.80
2018-01-20T05:10:58.629Z,65.14
2018-01-20T05:11:58.630Z,63.47
2018-01-20T05:12:58.632Z,62.72
2018-01-20T05:13:58.630Z,63.38
2018-01-20T05:14:58.631Z,64.61
2018-01-20T05:15:58.633Z,63.73
2018-01-20T05:16:58.633Z,63.85
2018-01-20T05:17:58.635Z,64.70
2018-01-20T05:18:58.635Z,64.14
2018-01-20T05:19:58.636Z,63.19
2018-01-20T05:20:58.635Z,62.25
2018-01-20T05:21:58.638Z,62.15
2018-01-20T05:22:58.640Z,62.34
2018-01-20T05:23:58.640Z,63.10
2018-01-20T05:24:58.637Z,64.04
2018-01-20T05:25:58.644Z,64.98
2018-01-20T05:26:58.642Z,66.27
2018-01-20T05:27:58.643Z,67.81
2018-01-20T05:28:58.645Z,68.25
2018-01-20T05:29:58.645Z,68.91
2018-01-20T05:30:58.645Z,69.38
2018-01-20T05:31:58.646Z,70.14
2018-01-20T05:32:58.647Z,71.36
2018-01-20T05:33:58.647Z,71.26
2018-01-20T05:34:58.650Z,69.48
2018-01-20T05:35:58.651Z,68.63
2018-01-20T05:36:58.653Z,69.48
2018-01-20T05:37:58.653Z,70.32
2018-01-20T05:38:58.656Z,70.42
2018-01-20T05:39:58.654Z,71.83
2018-01-20T05:40:58.658Z,73.34
2018-01-20T05:41:58.657Z,73.43
2018-01-20T05:42:58.661Z,74.00
2018-01-20T05:43:58.657Z,73.53
2018-01-20T05:44:58.661Z,72.49
2018-01-20T05:45:58.659Z,71.73
2018-01-20T05:46:58.660Z,71.36
2018-01-20T05:47:58.660Z,72.30
2018-01-20T05:48:58.661Z,72.11
2018-01-20T05:49:58.662Z,71.55
2018-01-20T05:50:58.667Z,72.68
2018-01-20T05:51:58.663Z,73.72
2018-01-20T05:52:58.664Z,73.43
2018-01-20T05:53:58.664Z,73.53
2018-01-20T05:54:58.667Z,74.00
2018-01-20T05:55:58.667Z,74.66
2018-01-20T05:56:58.668Z,75.04
2018-01-20T05:57:58.672Z,75.04
2018-01-20T05:58:58.670Z,74.85
2018-01-20T05:59:58.670Z,74.47
2018-01-20T06:00:58.670Z,74.66
2018-01-20T06:01:58.671Z,75.13
2018-01-20T06:02:58.672Z,75.32
2018-01-20T06:03:58.674Z,75.13
2018-01-20T06:04:58.673Z,74.76
2018-01-20T06:05:58.676Z,74.85
2018-01-20T06:06:58.676Z,74.76
2018-01-20T06:07:58.678Z,75.13
2018-01-20T06:08:58.677Z,75.51
2018-01-20T06:09:58.680Z,75.79
2018-01-20T06:10:58.679Z,76.17
2018-01-20T06:11:58.679Z,75.98
2018-01-20T06:12:58.680Z,74.95
2018-01-20T06:13:58.679Z,74.47
2018-01-20T06:14:58.684Z,74.95
2018-01-20T06:15:58.683Z,75.60
2018-01-20T06:16:58.681Z,75.60
2018-01-20T06:17:58.684Z,75.79
2018-01-20T06:18:58.684Z,75.60
2018-01-20T06:19:58.684Z,75.60
2018-01-20T06:20:58.684Z,75.60
2018-01-20T06:21:58.691Z,74.85
2018-01-20T06:22:58.686Z,74.00
2018-01-20T06:23:58.688Z,72.30
2018-01-20T06:24:58.686Z,71.83
2018-01-20T06:25:58.689Z,71.73
2018-01-20T06:26:58.688Z,72.68
2018-01-20T06:27:58.689Z,73.34
2018-01-20T06:28:58.689Z,73.25
2018-01-20T06:29:58.689Z,73.53
2018-01-20T06:30:58.691Z,74.66
2018-01-20T06:31:58.690Z,74.38
2018-01-20T06:32:58.691Z,74.47
2018-01-20T06:33:58.693Z,74.57
2018-01-20T06:34:58.691Z,74.38
2018-01-20T06:35:58.693Z,74.28
2018-01-20T06:36:58.693Z,74.57
2018-01-20T06:37:58.693Z,74.76
2018-01-20T06:38:58.693Z,74.57
2018-01-20T06:39:58.696Z,74.76
2018-01-20T06:40:58.694Z,74.66
2018-01-20T06:41:58.697Z,74.57
2018-01-20T06:42:58.697Z,74.38
2018-01-20T06:43:58.698Z,74.76
2018-01-20T06:44:58.698Z,74.57
2018-01-20T06:45:58.697Z,74.47
2018-01-20T06:46:58.700Z,74.66
2018-01-20T06:47:58.704Z,74.57
2018-01-20T06:48:58.699Z,74.85
2018-01-20T06:49:58.703Z,74.85
2018-01-20T06:50:58.702Z,74.57
2018-01-20T06:51:58.702Z,74.76
2018-01-20T06:52:58.706Z,75.32
2018-01-20T06:53:58.701Z,75.23
2018-01-20T06:54:58.704Z,74.85
2018-01-20T06:55:58.704Z,74.38
2018-01-20T06:56:58.704Z,73.91
2018-01-20T06:57:58.704Z,74.76
2018-01-20T06:58:58.705Z,74.76
2018-01-20T06:59:58.707Z,74.57
2018-01-20T07:00:58.706Z,74.00
2018-01-20T07:01:58.704Z,74.10
2018-01-20T07:02:58.706Z,73.43
2018-01-20T07:03:58.710Z,72.77
2018-01-20T07:04:58.706Z,71.83
2018-01-20T07:05:58.709Z,72.02
2018-01-20T07:06:58.709Z,72.02
2018-01-20T07:07:58.710Z,72.11
2018-01-20T07:08:58.708Z,73.43
2018-01-20T07:09:58.716Z,72.96
2018-01-20T07:10:58.712Z,72.68
2018-01-20T07:11:58.712Z,72.30
2018-01-20T07:12:58.713Z,72.87
2018-01-20T07:13:58.712Z,72.21
2018-01-20T07:14:58.717Z,72.02
2018-01-20T07:15:58.713Z,71.83
2018-01-20T07:16:58.715Z,72.68
2018-01-20T07:17:58.715Z,73.53
2018-01-20T07:18:58.717Z,73.91
2018-01-20T07:19:58.717Z,74.28
2018-01-20T07:20:58.716Z,73.72
2018-01-20T07:21:58.719Z,73.57
2018-01-20T07:22:58.719Z,72.81
2018-01-20T07:23:58.722Z,73.19
2018-01-20T07:24:58.720Z,73.19
2018-01-20T07:25:58.722Z,73.15
2018-01-20T07:26:58.726Z,73.10
2018-01-20T07:27:58.723Z,72.91
2018-01-20T07:28:58.722Z,71.58
2018-01-20T07:29:58.725Z,71.21
2018-01-20T07:30:58.726Z,70.36
2018-01-20T07:31:58.727Z,70.64
2018-01-20T07:32:58.728Z,71.21
2018-01-20T07:33:58.731Z,71.87
2018-01-20T07:34:58.730Z,72.44
2018-01-20T07:35:58.731Z,73.10
2018-01-20T07:36:58.732Z,72.62
2018-01-20T07:37:58.770Z,71.87
2018-01-20T07:38:58.734Z,71.30
2018-01-20T07:39:58.734Z,70.73
2018-01-20T07:40:58.735Z,69.79
2018-01-20T07:41:58.736Z,70.36
2018-01-20T07:42:58.737Z,70.36
2018-01-20T07:43:58.765Z,70.45
2018-01-20T07:44:58.738Z,70.36
2018-01-20T07:45:58.743Z,70.73
2018-01-20T07:46:58.740Z,70.54
2018-01-20T07:47:58.744Z,70.17
2018-01-20T07:48:58.746Z,68.85
2018-01-20T07:49:58.747Z,67.72
2018-01-20T07:50:58.744Z,68.10
2018-01-20T07:51:58.751Z,67.81
2018-01-20T07:52:58.749Z,67.06
2018-01-20T07:53:58.752Z,66.68
2018-01-20T07:54:58.752Z,66.30
2018-01-20T07:55:58.753Z,66.87
2018-01-20T07:56:58.754Z,67.34
2018-01-20T07:57:58.757Z,68.00
2018-01-20T07:58:58.756Z,68.57
2018-01-20T07:59:58.759Z,68.47
2018-01-20T08:00:58.759Z,68.38
2018-01-20T08:01:58.762Z,68.57
2018-01-20T08:02:58.764Z,68.57
2018-01-20T08:03:58.765Z,67.53
2018-01-20T08:04:58.764Z,67.72
2018-01-20T08:05:58.767Z,67.81
2018-01-20T08:06:58.769Z,67.72
2018-01-20T08:07:58.774Z,68.38
2018-01-20T08:08:58.770Z,67.91
2018-01-20T08:09:58.773Z,67.62
2018-01-20T08:10:58.785Z,68.10
2018-01-20T08:11:58.778Z,68.19
2018-01-20T08:12:58.780Z,68.10
2018-01-20T08:13:58.779Z,68.29
2018-01-20T08:14:58.782Z,68.38
2018-01-20T08:15:58.785Z,68.10
2018-01-20T08:16:58.785Z,68.00
2018-01-20T08:17:58.788Z,66.49
2018-01-20T08:18:58.787Z,66.40
2018-01-20T08:19:58.790Z,67.25
2018-01-20T08:20:58.793Z,68.29
2018-01-20T08:21:58.792Z,68.66
2018-01-20T08:22:58.837Z,68.57
2018-01-20T08:23:58.796Z,68.47
2018-01-20T08:24:58.804Z,68.10
2018-01-20T08:25:58.800Z,68.00
2018-01-20T08:26:58.802Z,68.95
2018-01-20T08:27:58.804Z,70.07
2018-01-20T08:28:58.805Z,70.17
2018-01-20T08:29:58.808Z,71.21
2018-01-20T08:30:58.820Z,70.64
2018-01-20T08:31:58.811Z,70.26
2018-01-20T08:32:58.812Z,70.54
2018-01-20T08:33:58.816Z,70.07
2018-01-20T08:34:58.818Z,70.64
2018-01-20T08:35:58.818Z,71.77
2018-01-20T08:36:58.824Z,72.91
2018-01-20T08:37:58.824Z,72.72
2018-01-20T08:38:58.828Z,73.19
2018-01-20T08:39:58.827Z,73.75
2018-01-20T08:40:58.827Z,73.66
2018-01-20T08:41:58.828Z,74.22
2018-01-20T08:42:58.829Z,74.60
2018-01-20T08:43:58.832Z,74.60
2018-01-20T08:44:58.832Z,74.60
2018-01-20T08:45:58.834Z,74.60
2018-01-20T08:46:58.838Z,74.41
2018-01-20T08:47:58.837Z,74.41
2018-01-20T08:48:58.843Z,74.22
2018-01-20T08:49:58.842Z,74.32
2018-01-20T08:50:58.843Z,74.32
2018-01-20T08:51:58.843Z,74.32
2018-01-20T08:52:58.844Z,74.04
2018-01-20T08:53:58.849Z,74.13
2018-01-20T08:54:58.850Z,74.13
2018-01-20T08:55:58.848Z,74.13
2018-01-20T08:56:58.850Z,73.75
2018-01-20T08:57:58.854Z,73.75
2018-01-20T08:58:58.854Z,73.19
2018-01-20T08:59:58.857Z,73.19
2018-01-20T09:00:58.862Z,73.66
2018-01-20T09:01:58.859Z,73.88
2018-01-20T09:02:58.860Z,73.51
2018-01-20T09:03:58.879Z,71.77
2018-01-20T09:04:58.882Z,71.30
2018-01-20T09:05:58.872Z,71.11
2018-01-20T09:06:58.878Z,71.72
2018-01-20T09:07:58.870Z,72.19
2018-01-20T09:08:58.879Z,71.53
2018-01-20T09:09:58.874Z,72.00
2018-01-20T09:10:58.887Z,72.28
2018-01-20T09:11:58.882Z,72.85
2018-01-20T09:12:59.889Z,72.75
2018-01-20T09:13:58.885Z,71.81
2018-01-20T09:14:58.888Z,71.53
2018-01-20T09:15:58.887Z,71.81
2018-01-20T09:16:58.887Z,71.25
2018-01-20T09:17:58.890Z,71.43
2018-01-20T09:18:58.892Z,71.06
2018-01-20T09:19:58.896Z,71.15
2018-01-20T09:20:58.895Z,71.53
2018-01-20T09:21:58.902Z,71.15
2018-01-20T09:22:58.903Z,70.68
2018-01-20T09:23:58.902Z,70.11
2018-01-20T09:24:58.915Z,69.64
2018-01-20T09:25:58.906Z,69.54
2018-01-20T09:26:58.916Z,69.64
2018-01-20T09:27:58.920Z,69.45
2018-01-20T09:28:58.929Z,69.26
2018-01-20T09:29:58.925Z,69.07
2018-01-20T09:30:58.928Z,68.88
2018-01-20T09:31:58.926Z,69.45
2018-01-20T09:32:58.929Z,68.70
2018-01-20T09:33:59.924Z,68.23
2018-01-20T09:34:58.937Z,67.94
2018-01-20T09:35:58.940Z,67.88
2018-01-20T09:37:01.938Z,68.13
2018-01-20T09:37:58.941Z,67.13
2018-01-20T09:38:58.945Z,67.32
2018-01-20T09:39:58.948Z,68.07
2018-01-20T09:40:58.949Z,67.60
2018-01-20T09:41:59.947Z,67.13
2018-01-20T09:42:58.970Z,66.65
2018-01-20T09:43:58.962Z,66.18
2018-01-20T09:44:58.960Z,66.18
2018-01-20T09:45:58.965Z,66.65
2018-01-20T09:46:58.965Z,67.88
2018-01-20T09:47:59.972Z,67.88
2018-01-20T09:48:59.969Z,67.19
2018-01-20T09:49:58.973Z,67.09
2018-01-20T09:50:58.978Z,67.85
2018-01-20T09:51:58.980Z,68.41
2018-01-20T09:52:59.981Z,68.51
2018-01-20T09:53:58.994Z,68.44
2018-01-20T09:54:58.997Z,67.57
2018-01-20T09:55:59.007Z,67.19
2018-01-20T09:56:59.987Z,67.85
2018-01-20T09:57:58.995Z,66.15
2018-01-20T09:58:59.005Z,66.94
2018-01-20T09:59:59.015Z,67.13
2018-01-20T10:00:59.004Z,67.03
2018-01-20T10:01:59.006Z,66.18
2018-01-20T10:02:59.009Z,65.99
2018-01-20T10:03:59.019Z,65.80
2018-01-20T10:05:00.032Z,64.58
2018-01-20T10:05:59.018Z,64.39
2018-01-20T10:06:59.029Z,64.39
2018-01-20T10:07:59.026Z,64.95
2018-01-20T10:08:59.040Z,65.33
2018-01-20T10:09:59.034Z,65.99
2018-01-20T10:10:59.040Z,66.28
2018-01-20T10:12:00.041Z,66.09
2018-01-20T10:12:59.049Z,66.09
2018-01-20T10:13:59.053Z,66.47
2018-01-20T10:14:59.053Z,66.18
2018-01-20T10:15:59.057Z,65.52
2018-01-20T10:16:59.074Z,65.61
2018-01-20T10:17:59.059Z,66.09
2018-01-20T10:18:59.065Z,66.09
2018-01-20T10:19:59.066Z,65.33
2018-01-20T10:20:59.071Z,63.82
2018-01-20T10:21:59.084Z,61.74
2018-01-20T10:22:59.083Z,61.08
2018-01-20T10:23:59.085Z,60.80
2018-01-20T10:24:59.099Z,61.46
2018-01-20T10:25:59.094Z,62.69
2018-01-20T10:26:59.095Z,63.73
2018-01-20T10:27:59.100Z,64.39
2018-01-20T10:28:59.098Z,64.95
2018-01-20T10:30:02.111Z,65.05
2018-01-20T10:30:59.113Z,63.45
2018-01-20T10:31:59.122Z,62.50
2018-01-20T10:32:59.114Z,61.93
2018-01-20T10:33:59.117Z,62.97
2018-01-20T10:34:59.123Z,62.12
2018-01-20T10:35:59.135Z,61.27
2018-01-20T10:37:00.132Z,60.52
2018-01-20T10:38:00.133Z,60.14
2018-01-20T10:38:59.148Z,60.05
2018-01-20T10:39:59.140Z,60.24
2018-01-20T10:41:00.175Z,59.57
2018-01-20T10:41:59.157Z,59.67
2018-01-20T10:42:59.156Z,59.76
2018-01-20T10:44:00.172Z,59.19
2018-01-20T10:44:59.163Z,59.00
2018-01-20T10:45:59.168Z,59.76
2018-01-20T10:46:59.181Z,60.61
2018-01-20T10:47:59.187Z,61.18
2018-01-20T10:49:00.175Z,59.67
2018-01-20T10:49:59.198Z,60.33
2018-01-20T10:50:59.184Z,60.89
2018-01-20T10:51:59.198Z,62.97
2018-01-20T10:53:00.191Z,64.29
2018-01-20T10:53:59.200Z,64.01
2018-01-20T10:54:59.201Z,62.21
2018-01-20T10:55:59.216Z,62.88
2018-01-20T10:56:59.207Z,64.86
2018-01-20T10:57:59.219Z,66.09
2018-01-20T10:58:59.216Z,66.75
2018-01-20T10:59:59.230Z,65.80
2018-01-20T11:00:59.228Z,65.23
2018-01-20T11:01:59.226Z,66.18
2018-01-20T11:02:59.230Z,66.18
2018-01-20T11:03:59.235Z,66.65
2018-01-20T11:04:59.236Z,69.11
2018-01-20T11:05:59.243Z,69.30
2018-01-20T11:07:01.239Z,69.11
2018-01-20T11:07:59.251Z,69.39
2018-01-20T11:08:59.255Z,70.43
2018-01-20T11:09:59.259Z,70.15
2018-01-20T11:10:59.261Z,69.58
2018-01-20T11:12:00.263Z,68.73
2018-01-20T11:12:59.270Z,66.37
2018-01-20T11:13:59.272Z,64.95
2018-01-20T11:15:00.276Z,63.92
2018-01-20T11:15:59.280Z,64.86
2018-01-20T11:16:59.289Z,65.90
2018-01-20T11:17:59.290Z,65.90
2018-01-20T11:18:59.297Z,65.99
2018-01-20T11:19:59.297Z,66.18
2018-01-20T11:20:59.317Z,66.75
2018-01-20T11:22:01.293Z,67.22
2018-01-20T11:22:59.328Z,67.03
2018-01-20T11:23:59.311Z,65.42
2018-01-20T11:24:59.314Z,63.82
2018-01-20T11:25:59.332Z,63.45
2018-01-20T11:27:00.326Z,63.92
2018-01-20T11:27:59.333Z,60.61
2018-01-20T11:28:59.330Z,59.29
2018-01-20T11:29:59.339Z,60.33
2018-01-20T11:31:00.344Z,60.33
2018-01-20T11:31:59.365Z,60.33
2018-01-20T11:32:59.346Z,60.05
2018-01-20T11:34:00.355Z,60.33
2018-01-20T11:34:59.362Z,60.24
2018-01-20T11:36:00.366Z,60.24
2018-01-20T11:36:59.376Z,60.33
2018-01-20T11:37:59.373Z,60.33
2018-01-20T11:38:59.373Z,60.33
2018-01-20T11:39:59.391Z,60.33
2018-01-20T11:40:59.380Z,59.10
2018-01-20T11:41:59.384Z,58.53
2018-01-20T11:42:59.388Z,58.82
2018-01-20T11:43:59.387Z,59.29
2018-01-20T11:44:59.398Z,59.67
2018-01-20T11:45:59.403Z,59.19
2018-01-20T11:47:00.402Z,59.00
2018-01-20T11:47:59.409Z,59.38
2018-01-20T11:48:59.413Z,60.14
2018-01-20T11:49:59.415Z,59.76
2018-01-20T11:50:59.431Z,59.48
2018-01-20T11:51:59.439Z,60.24
2018-01-20T11:53:00.428Z,61.27
2018-01-20T11:53:59.492Z,62.69
2018-01-20T11:54:59.447Z,63.45
2018-01-20T11:55:59.465Z,64.20
2018-01-20T11:56:59.454Z,64.95
2018-01-20T11:57:59.446Z,65.42
2018-01-20T11:58:59.452Z,65.80
2018-01-20T11:59:59.463Z,66.84
2018-01-20T12:01:00.463Z,67.50
2018-01-20T12:01:59.461Z,67.03
2018-01-20T12:02:59.468Z,66.18
2018-01-20T12:03:59.473Z,65.61
2018-01-20T12:04:59.473Z,65.99
2018-01-20T12:05:59.483Z,65.99
2018-01-20T12:06:59.483Z,65.42
2018-01-20T12:08:00.492Z,65.05
2018-01-20T12:08:59.513Z,65.42
2018-01-20T12:09:59.492Z,66.18
2018-01-20T12:10:59.519Z,66.18
2018-01-20T12:11:59.505Z,66.65
2018-01-20T12:12:59.504Z,66.65
2018-01-20T12:13:59.513Z,67.41
2018-01-20T12:14:59.511Z,67.13
2018-01-20T12:15:59.542Z,67.60
2018-01-20T12:16:59.527Z,68.44
2018-01-20T12:17:59.575Z,68.92
2018-01-20T12:18:59.536Z,69.11
2018-01-20T12:19:59.537Z,69.67
2018-01-20T12:20:59.549Z,70.24
2018-01-20T12:21:59.542Z,70.24
2018-01-20T12:22:59.552Z,70.62
2018-01-20T12:23:59.555Z,71.47
2018-01-20T12:24:59.560Z,71.75
2018-01-20T12:26:00.563Z,72.09
2018-01-20T12:27:00.566Z,72.47
2018-01-20T12:27:59.565Z,73.41
2018-01-20T12:28:59.580Z,74.55
2018-01-20T12:29:59.571Z,74.64
2018-01-20T12:30:59.576Z,74.64
2018-01-20T12:31:59.588Z,74.92
2018-01-20T12:32:59.588Z,74.92
2018-01-20T12:33:59.603Z,75.30
2018-01-20T12:34:59.594Z,75.78
2018-01-20T12:35:59.604Z,76.06
2018-01-20T12:36:59.605Z,75.68
2018-01-20T12:37:59.611Z,76.34
2018-01-20T12:38:59.620Z,76.58
2018-01-20T12:39:59.621Z,76.77
2018-01-20T12:41:00.620Z,77.00
2018-01-20T12:41:59.616Z,77.66
2018-01-20T12:42:59.624Z,77.75
2018-01-20T12:43:59.635Z,77.72
2018-01-20T12:44:59.626Z,77.85
2018-01-20T12:45:59.635Z,78.23
2018-01-20T12:46:59.636Z,77.85
2018-01-20T12:47:59.637Z,77.09
2018-01-20T12:48:59.645Z,77.09
2018-01-20T12:49:59.646Z,77.75
2018-01-20T12:50:59.649Z,76.90
2018-01-20T12:51:59.677Z,77.37
2018-01-20T12:52:59.657Z,77.19